Moffett Federal Airfield Mountain View US
ICAO: KNUQ
IATA: NUQ
Category: Medium
Scheduled Services: No

Elevation: 32 ft
TransAlt. 18000 ft.

Airport Communications:
NORCAL APP:31.76
NORCAL APP:120.1
ATIS/ASOS:124.175
CLNC DEL:38.08
CTAF:119.55
NORCAL DEP:121.3
GND:121.85
ANG:39.09
BASE OPS:25.17
TWR:119.55

KNUQ Zoom In..

Runways:

(A) RW 14L length 9197 ft width 200 ft
LOC 110.35 / hdg 142

(B) RW 14R length 8122 ft width 200 ft
LOC 110.35 / hdg 142

(C) RW 32L length 8122 ft width 200 ft
LOC 110.35 / hdg 322

(D) RW 32R length 9197 ft width 200 ft
ILS 110.35 / hdg 322

Location; KNUQ
Day. 31 / Time. 12.15 Zulu
* Altimeter: 29.95
* Temperature: 16° c. 60.8°f.
* Wind from: 000° Speed 00 kn.
Dewpoint: 12° c.
Visibility: 10 Statute Miles.
Clouds: Overcast 1500 ft.

KNUQ 311215Z AUTO 00000KT 10SM OVC015 16/12 A2995 RMK AO2


Wind - Calm.

 
 
jpsmedia worldairports.se 2020   terms of use